Pecos, New Mexico
Current Conditions -  °F | °C
As of 6:53 AM on Thursday 18 Dec 2014 (Local Time) from KSAF Reporting Station
Clear Clear  
Wind Chill: -12°   Ceiling: Unl
Heat Index: -7°   Visibility: 10mi
Dew Point: -8°   Wind: 7mph
Humidity: 89%   Direction: 10°N
Pressure: 30.1"   Gusts: NA
Location:  35.57°N, 105.68°W
Report Text: KSAF 181353Z AUTO 01006KT 10SM CLR M07/M08 A3010 RMK AO2 SLP204 I1000 T10671083
Loading
Personal Weather Stations






























Interactive Weather Map New forecast layout! Learn more

10-Day Weather Forecast

Advertisements
Track Severe Weather on mobile